createdAt,value
2022-09-20T00:00:26.372Z,10.10
2022-09-20T00:03:27.770Z,10.06
2022-09-20T00:06:31.451Z,10.06
2022-09-20T00:09:32.861Z,10.04
2022-09-20T00:12:34.284Z,9.97
2022-09-20T00:15:41.267Z,9.83
2022-09-20T00:18:42.873Z,9.65
2022-09-20T00:21:44.327Z,9.53
2022-09-20T00:24:48.983Z,9.46
2022-09-20T00:27:50.608Z,9.47
2022-09-20T00:30:53.756Z,9.52
2022-09-20T00:33:56.808Z,9.61
2022-09-20T00:36:58.207Z,9.66
2022-09-20T00:39:59.623Z,9.66
2022-09-20T00:43:01.056Z,9.71
2022-09-20T00:46:03.891Z,9.81
2022-09-20T00:49:16.360Z,9.86
2022-09-20T00:52:18.290Z,9.97
2022-09-20T00:55:20.225Z,9.99
2022-09-20T00:58:24.839Z,10.02
2022-09-20T01:01:26.372Z,10.09
2022-09-20T01:04:29.023Z,10.10
2022-09-20T01:07:30.578Z,10.11
2022-09-20T01:10:32.418Z,10.10
2022-09-20T01:13:33.832Z,10.12
2022-09-20T01:16:37.327Z,10.11
2022-09-20T01:20:01.519Z,10.12
2022-09-20T01:23:28.306Z,10.13
2022-09-20T01:26:48.521Z,10.18
2022-09-20T01:30:11.908Z,10.18
2022-09-20T01:33:32.561Z,10.19
2022-09-20T01:36:54.769Z,10.21
2022-09-20T01:40:11.277Z,10.21
2022-09-20T01:43:24.841Z,10.19
2022-09-20T01:46:34.410Z,10.19
2022-09-20T01:49:52.644Z,10.24
2022-09-20T01:53:27.311Z,10.24
2022-09-20T01:56:47.078Z,10.21
2022-09-20T01:59:54.573Z,10.14
2022-09-20T02:03:17.678Z,10.07
2022-09-20T02:06:47.628Z,10.00
2022-09-20T02:10:01.908Z,10.03
2022-09-20T02:13:11.151Z,10.13
2022-09-20T02:16:27.812Z,10.24
2022-09-20T02:19:46.591Z,10.25
2022-09-20T02:23:05.561Z,10.25
2022-09-20T02:26:22.744Z,10.25
2022-09-20T02:29:51.393Z,10.26
2022-09-20T02:33:23.114Z,10.22
2022-09-20T02:37:01.785Z,10.19
2022-09-20T02:40:42.513Z,10.13
2022-09-20T02:43:51.359Z,10.09
2022-09-20T02:47:30.112Z,10.08
2022-09-20T02:51:02.492Z,10.03
2022-09-20T02:54:35.333Z,10.00
2022-09-20T02:58:04.511Z,9.88
2022-09-20T03:01:35.020Z,9.73
2022-09-20T03:04:51.297Z,9.54
2022-09-20T03:08:24.806Z,9.44
2022-09-20T03:11:37.962Z,9.38
2022-09-20T03:15:02.755Z,9.34
2022-09-20T03:18:10.931Z,9.28
2022-09-20T03:21:28.184Z,9.29
2022-09-20T03:24:57.037Z,9.42
2022-09-20T03:28:38.416Z,9.51
2022-09-20T03:31:53.758Z,9.59
2022-09-20T03:35:24.493Z,9.63
2022-09-20T03:38:28.550Z,9.61
2022-09-20T03:42:07.430Z,9.64
2022-09-20T03:45:39.289Z,9.63
2022-09-20T03:49:25.666Z,9.66
2022-09-20T03:52:33.538Z,9.67
2022-09-20T03:56:12.597Z,9.68
2022-09-20T03:59:42.159Z,9.76
2022-09-20T04:02:46.609Z,9.79
2022-09-20T04:05:48.015Z,9.81
2022-09-20T04:09:04.714Z,9.79
2022-09-20T04:12:12.014Z,9.80
2022-09-20T04:15:41.562Z,9.82
2022-09-20T04:19:01.515Z,9.86
2022-09-20T04:22:03.545Z,9.84
2022-09-20T04:25:36.087Z,9.84
2022-09-20T04:28:51.704Z,9.86
2022-09-20T04:32:19.492Z,9.86
2022-09-20T04:35:32.837Z,9.84
2022-09-20T04:38:34.762Z,9.86
2022-09-20T04:42:10.343Z,9.89
2022-09-20T04:45:35.295Z,9.91
2022-09-20T04:49:09.083Z,9.96
2022-09-20T04:52:35.023Z,10.10
2022-09-20T04:55:55.719Z,10.12
2022-09-20T04:59:10.259Z,10.11
2022-09-20T05:02:37.216Z,10.06
2022-09-20T05:05:56.330Z,10.02
2022-09-20T05:09:25.875Z,10.04
2022-09-20T05:12:45.468Z,10.05
2022-09-20T05:16:21.617Z,10.04
2022-09-20T05:19:43.305Z,10.02
2022-09-20T05:22:59.877Z,9.99
2022-09-20T05:26:12.677Z,9.97
2022-09-20T05:29:17.549Z,9.97
2022-09-20T05:32:41.616Z,9.98
2022-09-20T05:36:10.742Z,9.95
2022-09-20T05:39:24.883Z,9.94
2022-09-20T05:42:48.119Z,9.83
2022-09-20T05:46:10.748Z,9.79
2022-09-20T05:49:31.127Z,9.76
2022-09-20T05:52:54.278Z,9.65
2022-09-20T05:56:14.429Z,9.61
2022-09-20T05:59:29.471Z,9.61
2022-09-20T06:02:44.660Z,9.61
2022-09-20T06:06:13.957Z,9.61
2022-09-20T06:09:29.714Z,9.57
2022-09-20T06:12:46.885Z,9.56
2022-09-20T06:15:58.456Z,9.53
2022-09-20T06:19:18.142Z,9.62
2022-09-20T06:22:24.683Z,9.80
2022-09-20T06:25:38.719Z,9.81
2022-09-20T06:28:46.053Z,9.80
2022-09-20T06:31:47.459Z,9.96
2022-09-20T06:34:49.917Z,10.06
2022-09-20T06:38:00.862Z,10.17
2022-09-20T06:41:03.771Z,10.36
2022-09-20T06:44:05.323Z,10.96
2022-09-20T06:47:10.407Z,11.89
2022-09-20T06:50:15.846Z,13.61
2022-09-20T06:53:20.975Z,14.92
2022-09-20T06:56:26.452Z,15.86
2022-09-20T06:59:27.921Z,16.60
2022-09-20T07:02:29.362Z,16.68
2022-09-20T07:05:30.823Z,17.45
2022-09-20T07:08:32.358Z,17.14
2022-09-20T07:11:33.801Z,17.50
2022-09-20T07:14:35.200Z,18.37
2022-09-20T07:17:36.602Z,18.66
2022-09-20T07:20:38.037Z,19.59
2022-09-20T07:23:39.568Z,19.55
2022-09-20T07:26:54.750Z,19.83
2022-09-20T07:29:56.152Z,20.12
2022-09-20T07:32:57.545Z,20.05
2022-09-20T07:35:58.975Z,20.05
2022-09-20T07:39:00.392Z,19.89
2022-09-20T07:42:01.808Z,18.83
2022-09-20T07:45:03.598Z,18.62
2022-09-20T07:48:08.048Z,18.50
2022-09-20T07:51:12.007Z,17.64
2022-09-20T07:54:13.466Z,16.80
2022-09-20T07:57:14.872Z,17.19
2022-09-20T08:00:16.592Z,17.38
2022-09-20T08:03:18.049Z,17.88
2022-09-20T08:06:19.512Z,16.30
2022-09-20T08:09:20.995Z,15.10
2022-09-20T08:15:43.834Z,14.68
2022-09-20T08:18:52.791Z,15.61
2022-09-20T08:21:54.731Z,16.20
2022-09-20T08:24:56.131Z,16.78
2022-09-20T08:27:57.557Z,17.49
2022-09-20T08:31:10.514Z,18.67
2022-09-20T08:34:13.140Z,18.72
2022-09-20T08:37:14.530Z,18.88
2022-09-20T08:40:16.027Z,19.94
2022-09-20T08:43:22.362Z,19.21
2022-09-20T08:46:28.838Z,18.38
2022-09-20T08:49:30.670Z,18.00
2022-09-20T08:52:36.967Z,17.18
2022-09-20T08:55:40.314Z,16.13
2022-09-20T08:58:42.003Z,15.46
2022-09-20T09:01:43.455Z,15.30
2022-09-20T09:04:45.992Z,15.73
2022-09-20T09:07:47.420Z,15.64
2022-09-20T09:10:53.106Z,16.23
2022-09-20T09:14:02.832Z,17.90
2022-09-20T09:17:04.296Z,19.32
2022-09-20T09:20:18.192Z,18.17
2022-09-20T09:23:23.948Z,18.66
2022-09-20T09:26:25.468Z,19.46
2022-09-20T09:29:26.893Z,19.64
2022-09-20T09:32:31.703Z,18.82
2022-09-20T09:35:35.811Z,17.73
2022-09-20T09:38:42.401Z,17.34
2022-09-20T09:41:44.146Z,16.83
2022-09-20T09:44:45.575Z,16.16
2022-09-20T09:47:47.050Z,15.42
2022-09-20T09:51:11.526Z,15.40
2022-09-20T09:54:17.716Z,15.07
2022-09-20T09:57:19.075Z,15.15
2022-09-20T10:00:23.052Z,16.17
2022-09-20T10:03:57.071Z,17.17
2022-09-20T10:07:25.553Z,16.94
2022-09-20T10:10:26.989Z,16.14
2022-09-20T10:13:51.756Z,15.58
2022-09-20T10:17:33.158Z,16.19
2022-09-20T10:20:48.838Z,16.70
2022-09-20T10:24:04.341Z,17.36
2022-09-20T10:27:43.277Z,18.18
2022-09-20T10:30:50.548Z,17.85
2022-09-20T10:34:37.088Z,18.48
2022-09-20T10:38:00.325Z,18.40
2022-09-20T10:41:12.232Z,18.35
2022-09-20T10:44:49.020Z,17.60
2022-09-20T10:47:57.328Z,17.56
2022-09-20T10:51:10.876Z,17.92
2022-09-20T10:54:32.321Z,18.71
2022-09-20T10:58:05.280Z,18.65
2022-09-20T11:01:23.659Z,18.50
2022-09-20T11:04:53.854Z,17.92
2022-09-20T11:08:20.825Z,17.11
2022-09-20T11:11:34.361Z,17.47
2022-09-20T11:14:43.937Z,17.52
2022-09-20T11:18:13.434Z,17.22
2022-09-20T11:21:24.866Z,17.18
2022-09-20T11:24:32.106Z,17.91
2022-09-20T11:27:39.941Z,18.19
2022-09-20T11:31:04.227Z,18.10
2022-09-20T11:34:23.021Z,17.39
2022-09-20T11:37:32.682Z,17.50
2022-09-20T11:40:38.317Z,17.73
2022-09-20T11:43:43.809Z,17.85
2022-09-20T11:46:55.345Z,18.05
2022-09-20T11:50:17.850Z,18.46
2022-09-20T11:53:27.793Z,18.75
2022-09-20T11:56:32.764Z,18.95
2022-09-20T11:59:55.807Z,18.22
2022-09-20T12:02:58.564Z,18.00
2022-09-20T12:06:02.583Z,17.49
2022-09-20T12:09:20.761Z,16.68
2022-09-20T12:12:32.581Z,16.34
2022-09-20T12:15:40.227Z,15.94
2022-09-20T12:18:53.895Z,15.55
2022-09-20T12:21:58.092Z,15.36
2022-09-20T12:25:44.984Z,15.09
2022-09-20T12:28:54.561Z,15.03
2022-09-20T12:32:00.112Z,14.98
2022-09-20T12:35:01.626Z,15.14
2022-09-20T12:38:21.307Z,15.06
2022-09-20T12:41:28.200Z,15.23
2022-09-20T12:44:32.791Z,15.25
2022-09-20T12:47:37.127Z,15.58
2022-09-20T12:50:38.793Z,15.78
2022-09-20T12:53:40.253Z,15.81
2022-09-20T12:56:42.115Z,15.89
2022-09-20T12:59:43.595Z,16.06
2022-09-20T13:02:51.233Z,16.21
2022-09-20T13:06:05.975Z,16.39
2022-09-20T13:09:09.612Z,16.75
2022-09-20T13:12:11.134Z,17.17
2022-09-20T13:15:18.994Z,17.37
2022-09-20T13:18:21.552Z,17.94
2022-09-20T13:21:23.364Z,19.25
2022-09-20T13:24:26.370Z,19.86
2022-09-20T13:27:33.122Z,19.57
2022-09-20T13:30:34.610Z,19.10
2022-09-20T13:33:35.993Z,18.40
2022-09-20T13:36:37.728Z,17.81
2022-09-20T13:39:39.256Z,17.27
2022-09-20T13:42:40.724Z,17.10
2022-09-20T13:45:47.409Z,17.00
2022-09-20T13:48:53.704Z,16.86
2022-09-20T13:51:55.118Z,16.89
2022-09-20T13:54:57.064Z,17.10
2022-09-20T13:58:08.409Z,16.80
2022-09-20T14:01:23.900Z,16.84
2022-09-20T14:04:28.372Z,17.22
2022-09-20T14:07:31.059Z,16.57
2022-09-20T14:10:38.178Z,16.19
2022-09-20T14:13:51.533Z,16.45
2022-09-20T14:16:56.205Z,17.09
2022-09-20T14:19:57.783Z,17.29
2022-09-20T14:22:59.935Z,17.35
2022-09-20T14:26:16.365Z,17.64
2022-09-20T14:29:51.463Z,17.72
2022-09-20T14:32:56.024Z,17.73
2022-09-20T14:35:57.692Z,17.44
2022-09-20T14:39:03.281Z,17.37
2022-09-20T14:42:28.734Z,17.52
2022-09-20T14:45:36.267Z,17.37
2022-09-20T14:48:39.874Z,17.19
2022-09-20T14:51:41.269Z,17.22
2022-09-20T14:54:42.680Z,17.22
2022-09-20T14:57:45.216Z,17.18
2022-09-20T15:00:57.405Z,17.12
2022-09-20T15:03:59.256Z,17.03
2022-09-20T15:07:03.447Z,16.97
2022-09-20T15:10:06.265Z,16.83
2022-09-20T15:13:10.875Z,16.89
2022-09-20T15:16:18.579Z,16.76
2022-09-20T15:19:20.024Z,16.71
2022-09-20T15:22:21.433Z,16.55
2022-09-20T15:25:22.921Z,16.25
2022-09-20T15:28:24.351Z,16.25
2022-09-20T15:31:25.885Z,16.62
2022-09-20T15:34:27.317Z,16.84
2022-09-20T15:37:28.923Z,16.92
2022-09-20T15:40:30.568Z,17.03
2022-09-20T15:43:32.283Z,16.88
2022-09-20T15:46:34.396Z,16.73
2022-09-20T15:49:35.786Z,16.57
2022-09-20T15:52:39.329Z,16.17
2022-09-20T15:55:40.747Z,15.97
2022-09-20T15:58:46.789Z,15.83
2022-09-20T16:01:48.880Z,15.60
2022-09-20T16:04:50.316Z,15.52
2022-09-20T16:07:51.721Z,15.59
2022-09-20T16:11:00.093Z,15.71
2022-09-20T16:14:01.859Z,15.77
2022-09-20T16:17:03.299Z,15.73
2022-09-20T16:20:05.095Z,15.79
2022-09-20T16:23:06.515Z,15.69
2022-09-20T16:26:09.131Z,15.28
2022-09-20T16:29:10.607Z,15.27
2022-09-20T16:32:12.035Z,15.21
2022-09-20T16:35:13.458Z,15.13
2022-09-20T16:38:14.856Z,15.04
2022-09-20T16:41:16.322Z,14.96
2022-09-20T16:44:17.761Z,14.82
2022-09-20T16:47:19.165Z,14.58
2022-09-20T16:50:20.552Z,14.44
2022-09-20T16:53:21.964Z,14.26
2022-09-20T16:56:26.201Z,14.11
2022-09-20T16:59:27.863Z,13.97
2022-09-20T17:02:29.269Z,13.85
2022-09-20T17:05:30.673Z,13.70
2022-09-20T17:08:32.833Z,13.60
2022-09-20T17:11:39.380Z,13.43
2022-09-20T17:14:40.802Z,13.23
2022-09-20T17:17:42.227Z,13.09
2022-09-20T17:20:43.627Z,12.94
2022-09-20T17:23:50.793Z,12.82
2022-09-20T17:26:52.661Z,12.71
2022-09-20T17:29:54.092Z,12.51
2022-09-20T17:32:55.486Z,12.41
2022-09-20T17:35:57.173Z,12.26
2022-09-20T17:39:04.146Z,12.10
2022-09-20T17:42:06.342Z,12.02
2022-09-20T17:45:08.317Z,12.13
2022-09-20T17:48:09.719Z,12.13
2022-09-20T17:51:12.616Z,11.94
2022-09-20T17:54:14.693Z,11.96
2022-09-20T17:57:16.083Z,11.82
2022-09-20T18:00:17.492Z,11.78
2022-09-20T18:03:18.913Z,11.76
2022-09-20T18:06:23.615Z,11.64
2022-09-20T18:09:25.575Z,11.59
2022-09-20T18:12:26.977Z,11.52
2022-09-20T18:15:28.384Z,11.46
2022-09-20T18:18:31.169Z,11.36
2022-09-20T18:21:33.667Z,11.32
2022-09-20T18:24:35.092Z,11.14
2022-09-20T18:27:36.526Z,11.05
2022-09-20T18:30:37.909Z,10.89
2022-09-20T18:33:39.295Z,10.77
2022-09-20T18:36:41.287Z,10.66
2022-09-20T18:39:42.963Z,10.73
2022-09-20T18:42:46.805Z,10.77
2022-09-20T18:45:51.952Z,10.83
2022-09-20T18:48:58.566Z,10.78
2022-09-20T18:52:00.153Z,10.65
2022-09-20T18:55:01.627Z,10.45
2022-09-20T18:58:03.258Z,10.36
2022-09-20T19:01:29.043Z,10.21
2022-09-20T19:04:51.481Z,10.02
2022-09-20T19:08:12.888Z,9.85
2022-09-20T19:11:28.397Z,9.69
2022-09-20T19:14:44.144Z,9.60
2022-09-20T19:17:51.300Z,9.53
2022-09-20T19:21:11.124Z,9.43
2022-09-20T19:24:34.107Z,9.32
2022-09-20T19:27:35.831Z,9.25
2022-09-20T19:30:37.560Z,9.20
2022-09-20T19:33:39.403Z,9.16
2022-09-20T19:36:56.318Z,9.17
2022-09-20T19:40:07.177Z,9.20
2022-09-20T19:43:30.427Z,9.27
2022-09-20T19:46:42.614Z,9.29
2022-09-20T19:50:07.896Z,9.32
2022-09-20T19:53:09.572Z,9.36
2022-09-20T19:56:24.900Z,9.48
2022-09-20T19:59:27.872Z,9.62
2022-09-20T20:02:29.659Z,9.80
2022-09-20T20:05:31.446Z,9.95
2022-09-20T20:09:04.708Z,10.14
2022-09-20T20:12:17.320Z,10.30
2022-09-20T20:15:44.080Z,10.47
2022-09-20T20:18:54.333Z,10.62
2022-09-20T20:22:08.108Z,10.77
2022-09-20T20:25:35.156Z,10.88
2022-09-20T20:28:36.883Z,10.96
2022-09-20T20:31:38.384Z,11.04
2022-09-20T20:34:39.789Z,11.05
2022-09-20T20:37:41.180Z,11.07
2022-09-20T20:40:42.580Z,11.10
2022-09-20T20:43:45.447Z,11.12
2022-09-20T20:46:47.728Z,11.14
2022-09-20T20:49:52.583Z,11.16
2022-09-20T20:52:55.084Z,11.15
2022-09-20T20:56:01.474Z,11.17
2022-09-20T20:59:04.576Z,11.17
2022-09-20T21:02:08.079Z,11.14
2022-09-20T21:05:09.652Z,11.11
2022-09-20T21:08:11.092Z,11.07
2022-09-20T21:11:15.894Z,11.03
2022-09-20T21:14:17.414Z,10.99
2022-09-20T21:17:18.813Z,10.95
2022-09-20T21:20:20.746Z,10.93
2022-09-20T21:23:22.197Z,10.89
2022-09-20T21:26:25.987Z,10.84
2022-09-20T21:29:27.420Z,10.84
2022-09-20T21:32:28.885Z,10.81
2022-09-20T21:35:30.516Z,10.75
2022-09-20T21:38:31.977Z,10.68
2022-09-20T21:41:35.680Z,10.59
2022-09-20T21:44:37.057Z,10.48
2022-09-20T21:47:38.474Z,10.35
2022-09-20T21:50:39.873Z,10.29
2022-09-20T21:53:41.564Z,10.21
2022-09-20T21:56:42.964Z,10.12
2022-09-20T21:59:44.358Z,10.07
2022-09-20T22:02:45.744Z,9.99
2022-09-20T22:05:47.157Z,9.94
2022-09-20T22:08:54.089Z,9.95
2022-09-20T22:11:55.513Z,9.92
2022-09-20T22:14:56.920Z,9.91
2022-09-20T22:17:58.325Z,9.94
2022-09-20T22:21:08.687Z,10.01
2022-09-20T22:24:11.377Z,10.13
2022-09-20T22:27:13.098Z,10.20
2022-09-20T22:30:14.715Z,10.26
2022-09-20T22:33:16.266Z,10.34
2022-09-20T22:36:21.055Z,10.43
2022-09-20T22:39:22.595Z,10.49
2022-09-20T22:42:24.153Z,10.51
2022-09-20T22:45:25.682Z,10.55
2022-09-20T22:48:29.258Z,10.56
2022-09-20T22:51:32.181Z,10.53
2022-09-20T22:54:33.709Z,10.49
2022-09-20T22:57:35.979Z,10.47
2022-09-20T23:00:37.505Z,10.47
2022-09-20T23:03:40.535Z,10.47
2022-09-20T23:06:44.915Z,10.43
2022-09-20T23:09:46.442Z,10.38
2022-09-20T23:12:51.472Z,10.29
2022-09-20T23:15:54.104Z,10.21
2022-09-20T23:18:57.412Z,10.10
2022-09-20T23:21:58.955Z,9.96
2022-09-20T23:25:00.483Z,9.91
2022-09-20T23:28:02.075Z,9.88
2022-09-20T23:31:09.745Z,9.88
2022-09-20T23:34:11.378Z,9.88
2022-09-20T23:37:12.871Z,9.87
2022-09-20T23:40:14.585Z,9.87
2022-09-20T23:43:16.161Z,9.84
2022-09-20T23:46:19.372Z,9.88
2022-09-20T23:49:20.905Z,9.92
2022-09-20T23:52:22.473Z,9.96
2022-09-20T23:55:24.104Z,10.03
2022-09-20T23:58:25.884Z,10.06
